KVLD/VLD METAR and TAF weather

Enter ICAO airport designator
Station Type Date Time Source
KVLD METAR 2020/04/04 04:53 UTC NOAA

KVLD 040453Z AUTO 00000KT 7SM CLR 12/09 A2998 RMK AO2 SLP157 T01220094 402610078 $


Station Type Date Time Source
KVLD Decoded METAR 2020/04/04 04:53 UTC NOAA

VALDOSTA REGIONAL AIRPORT, GA, United States (KVLD) 30-47N 083-16W
Apr 04, 2020 - 12:53 AM EDT / 2020.04.04 0453 UTC
Wind: Calm:0
Visibility: 7 mile(s):0
Sky conditions: clear
Temperature: 54.0 F (12.2 C)
Dew Point: 48.9 F (9.4 C)
Relative Humidity: 82%
Pressure (altimeter): 29.98 in. Hg (1015 hPa)
ob: KVLD 040453Z AUTO 00000KT 7SM CLR 12/09 A2998 RMK AO2 SLP157 T01220094 402610078
cycle: 5

Station Type Date Time Source
KVLD TAF 2020/04/04 06:22 UTC NOAA

TAF KVLD 040520Z 0406/0506 32004KT P6SM SCT200

Example: see airport list